Time;durP1;ratioP1;P1;durP2;ratioP2;P2;SDS_P1;SDS_P2;PMS_P1;PMS_P2;Temp;Humidity;BMP_temperature;BMP_pressure;BME280_temperature;BME280_humidity;BME280_pressure;Samples;Min_cycle;Max_cycle;Signal;HPM_P1;HPM_P2
2021/01/22 04:01:41;;;;;;;41.15;21.15;;;;;;;-0.71;100.00;100829.47;1756158;76;21195;-60
2021/01/22 04:04:10;;;;;;;37.98;21.87;;;;;;;-0.63;100.00;100832.37;1743376;80;21302;-58
2021/01/22 04:06:40;;;;;;;41.68;21.90;;;;;;;-0.57;100.00;100829.44;1704813;82;21202;-60
2021/01/22 04:09:09;;;;;;;38.48;22.87;;;;;;;-0.50;100.00;100840.08;1709980;82;21130;-61
2021/01/22 04:11:38;;;;;;;51.05;26.77;;;;;;;-0.45;100.00;100839.35;1690654;82;21066;-61
2021/01/22 04:14:08;;;;;;;36.85;21.87;;;;;;;-0.42;100.00;100834.01;1731125;80;20914;-61
2021/01/22 04:16:36;;;;;;;24.00;16.97;;;;;;;-0.37;100.00;100838.86;1784686;78;21188;-61
2021/01/22 04:19:06;;;;;;;30.70;18.50;;;;;;;-0.33;100.00;100836.00;1785170;78;21212;-61
2021/01/22 04:21:34;;;;;;;34.67;20.75;;;;;;;-0.29;100.00;100837.44;1757073;78;21069;-62
2021/01/22 04:24:04;;;;;;;38.95;22.70;;;;;;;-0.23;100.00;100843.08;1740226;80;20978;-59
2021/01/22 04:26:33;;;;;;;31.48;18.35;;;;;;;-0.20;100.00;100837.77;1738679;80;21257;-61
2021/01/22 04:29:01;;;;;;;25.30;16.40;;;;;;;-0.16;100.00;100834.89;1738542;80;21088;-59
2021/01/22 04:31:30;;;;;;;22.65;15.03;;;;;;;-0.12;100.00;100835.52;1710681;81;21395;-60
2021/01/22 04:33:58;;;;;;;23.55;15.53;;;;;;;-0.09;100.00;100834.86;1788800;78;21564;-61
2021/01/22 04:36:26;;;;;;;28.95;16.87;;;;;;;-0.06;100.00;100841.53;1787487;78;21565;-61
2021/01/22 04:38:55;;;;;;;38.80;20.55;;;;;;;-0.05;100.00;100836.77;1787317;78;21187;-62
2021/01/22 04:41:23;;;;;;;43.65;22.00;;;;;;;-0.05;100.00;100830.36;1781549;78;21163;-59
2021/01/22 04:43:51;;;;;;;40.70;20.95;;;;;;;-0.03;100.00;100832.38;1785617;78;22612;-63
2021/01/22 04:46:21;;;;;;;39.95;21.07;;;;;;;-0.02;100.00;100841.23;1781075;78;21612;-61
2021/01/22 04:48:50;;;;;;;37.35;19.45;;;;;;;-0.01;100.00;100835.17;1791101;78;21587;-60
2021/01/22 04:51:18;;;;;;;28.98;17.07;;;;;;;-0.01;100.00;100836.45;1784619;78;21482;-61
2021/01/22 04:53:48;;;;;;;29.90;18.15;;;;;;;0.02;100.00;100842.31;1787668;78;22279;-62
2021/01/22 04:56:16;;;;;;;28.52;17.50;;;;;;;0.01;100.00;100838.94;1777175;78;22944;-61
2021/01/22 04:58:46;;;;;;;31.07;18.55;;;;;;;0.01;100.00;100833.81;1786507;78;21223;-61
2021/01/22 05:01:14;;;;;;;33.00;18.23;;;;;;;0.01;100.00;100841.50;1787006;78;21236;-63
2021/01/22 05:03:44;;;;;;;37.73;22.98;;;;;;;0.01;100.00;100836.38;1773108;79;21590;-62
2021/01/22 05:06:12;;;;;;;72.17;40.03;;;;;;;0.02;100.00;100833.34;1749701;79;21658;-61
2021/01/22 05:08:40;;;;;;;43.83;24.37;;;;;;;0.02;100.00;100836.73;1770507;79;23471;-60
2021/01/22 05:11:09;;;;;;;37.70;23.62;;;;;;;0.03;100.00;100835.80;1774861;79;21093;-60
2021/01/22 05:13:39;;;;;;;30.55;19.17;;;;;;;0.05;100.00;100841.66;1773877;79;20934;-63
2021/01/22 05:16:14;;;;;;;28.00;18.00;;;;;;;0.06;100.00;100843.29;1768296;79;21501;-59
2021/01/22 05:18:43;;;;;;;30.95;21.73;;;;;;;0.07;100.00;100848.77;1738416;80;21156;-59
2021/01/22 05:21:12;;;;;;;34.98;25.55;;;;;;;0.09;100.00;100848.69;1771197;79;21160;-59
2021/01/22 05:23:42;;;;;;;39.05;25.10;;;;;;;0.08;100.00;100853.00;1775821;79;21158;-61
2021/01/22 05:26:13;;;;;;;37.38;24.02;;;;;;;0.07;100.00;100850.52;1770208;79;21212;-59
2021/01/22 05:28:46;;;;;;;32.67;22.37;;;;;;;0.05;100.00;100848.06;1772746;79;21216;-58
2021/01/22 05:31:16;;;;;;;29.65;20.52;;;;;;;0.06;100.00;100845.03;1772592;79;21560;-62
2021/01/22 05:33:59;;;;;;;35.98;23.90;;;;;;;0.06;100.00;100850.98;1771240;79;21238;-59
2021/01/22 05:36:30;;;;;;;35.10;22.80;;;;;;;0.07;100.00;100848.77;1768668;79;21109;-60
2021/01/22 05:38:59;;;;;;;;;;;;;;;0.08;100.00;100850.44;1776028;78;21151;-60
2021/01/22 05:41:30;;;;;;;34.20;23.10;;;;;;;0.12;100.00;100845.46;1777972;78;20181;-59
2021/01/22 05:43:58;;;;;;;33.92;23.52;;;;;;;0.15;100.00;100854.23;1778356;78;21566;-60
2021/01/22 05:46:28;;;;;;;41.88;27.80;;;;;;;0.19;100.00;100858.67;1768656;79;21159;-60
2021/01/22 05:49:14;;;;;;;36.13;24.85;;;;;;;0.21;100.00;100853.81;1764753;79;21044;-59
2021/01/22 05:51:43;;;;;;;34.58;21.00;;;;;;;0.27;100.00;100853.06;1764783;79;21579;-60
2021/01/22 05:54:36;;;;;;;34.38;27.20;;;;;;;0.33;100.00;100861.15;1766261;79;21501;-59
2021/01/22 05:57:05;;;;;;;45.88;29.82;;;;;;;0.38;100.00;100859.55;1726236;81;21222;-60
2021/01/22 05:59:33;;;;;;;33.38;21.95;;;;;;;0.43;100.00;100858.80;1727499;80;21268;-60
2021/01/22 06:02:26;;;;;;;32.17;20.45;;;;;;;0.48;100.00;100858.84;1734422;80;21319;-63
2021/01/22 06:05:16;;;;;;;31.77;20.17;;;;;;;0.54;100.00;100860.66;1733436;80;20990;-58
2021/01/22 06:07:46;;;;;;;42.67;25.62;;;;;;;0.56;100.00;100851.91;1731956;81;21031;-58
2021/01/22 06:10:22;;;;;;;30.72;19.73;;;;;;;0.62;100.00;100857.92;1776912;79;21270;-60
2021/01/22 06:12:53;;;;;;;40.60;26.73;;;;;;;0.67;100.00;100862.27;1769025;79;21358;-59
2021/01/22 06:15:23;;;;;;;47.67;31.68;;;;;;;0.71;100.00;100855.18;1754785;79;21147;-62
2021/01/22 06:17:53;;;;;;;46.28;27.42;;;;;;;0.75;100.00;100863.02;1753056;78;21056;-59
2021/01/22 06:20:23;;;;;;;40.92;25.23;;;;;;;0.78;100.00;100855.59;1752575;79;21010;-58
2021/01/22 06:23:08;;;;;;;36.77;22.60;;;;;;;0.82;100.00;100853.17;1747292;79;21182;-58
2021/01/22 06:25:38;;;;;;;39.30;23.52;;;;;;;0.85;100.00;100842.70;1787172;78;21199;-58
2021/01/22 06:28:10;;;;;;;38.75;22.62;;;;;;;0.86;100.00;100843.86;1754649;79;21002;-58
2021/01/22 06:30:38;;;;;;;40.03;22.95;;;;;;;0.88;100.00;100852.76;1785140;79;21124;-58
2021/01/22 06:33:07;;;;;;;28.02;18.80;;;;;;;0.90;100.00;100854.27;1759976;79;21176;-59
2021/01/22 06:35:37;;;;;;;29.60;19.32;;;;;;;0.94;100.00;100848.47;1774677;79;21219;-58
2021/01/22 06:38:07;;;;;;;32.17;18.95;;;;;;;0.97;100.00;100845.69;1776432;79;21253;-60
2021/01/22 06:40:35;;;;;;;27.60;16.95;;;;;;;0.99;100.00;100848.98;1775548;79;21856;-58
2021/01/22 06:43:07;;;;;;;28.40;19.10;;;;;;;1.01;100.00;100851.44;1780223;79;21510;-61
2021/01/22 06:45:36;;;;;;;31.40;21.02;;;;;;;1.01;100.00;100852.25;1773531;79;21192;-59
2021/01/22 06:48:06;;;;;;;34.18;20.88;;;;;;;1.02;100.00;100847.47;1773678;79;21108;-60
2021/01/22 06:50:36;;;;;;;31.55;17.82;;;;;;;1.05;100.00;100837.45;1768316;79;21396;-58
2021/01/22 06:53:14;;;;;;;62.85;39.73;;;;;;;1.07;100.00;100833.05;1781613;79;21631;-59
2021/01/22 06:55:53;;;;;;;49.45;29.65;;;;;;;1.11;100.00;100832.72;1766843;79;21053;-59
2021/01/22 06:58:33;;;;;;;265.12;111.92;;;;;;;1.11;100.00;100835.28;1764728;79;21184;-59
2021/01/22 07:01:04;;;;;;;116.80;56.70;;;;;;;1.14;100.00;100832.51;1775001;79;21540;-59
2021/01/22 07:03:46;;;;;;;81.15;47.27;;;;;;;1.18;100.00;100837.78;1768271;79;21230;-59
2021/01/22 07:06:47;;;;;;;52.27;34.75;;;;;;;1.20;100.00;100848.75;1770995;79;21601;-62
2021/01/22 07:09:09;;;;;;;42.62;29.40;;;;;;;1.20;100.00;100837.19;1765488;79;21138;-60
2021/01/22 07:11:54;;;;;;;92.70;54.80;;;;;;;1.19;100.00;100842.45;1760348;79;21060;-60
2021/01/22 07:14:38;;;;;;;53.25;32.67;;;;;;;1.20;100.00;100839.77;1762206;80;21016;-60
2021/01/22 07:17:30;;;;;;;41.53;24.72;;;;;;;1.24;100.00;100837.80;1764612;79;21199;-60
2021/01/22 07:20:05;;;;;;;30.35;19.60;;;;;;;1.29;100.00;100837.47;1757835;80;20953;-59
2021/01/22 07:22:36;;;;;;;31.90;21.42;;;;;;;1.34;100.00;100831.56;1792339;78;21587;-59
2021/01/22 07:25:06;;;;;;;31.82;19.98;;;;;;;1.38;100.00;100831.70;1787091;78;21107;-61
2021/01/22 07:27:44;;;;;;;27.65;18.85;;;;;;;1.41;100.00;100829.73;1778649;78;21211;-60
2021/01/22 07:30:15;;;;;;;33.13;20.43;;;;;;;1.44;100.00;100830.80;1774711;78;21361;-60
2021/01/22 07:32:45;;;;;;;26.00;16.75;;;;;;;1.48;100.00;100825.41;1775837;78;25791;-61
2021/01/22 07:35:24;;;;;;;30.20;19.10;;;;;;;1.55;100.00;100829.19;1776249;78;20982;-60
2021/01/22 07:37:52;;;;;;;28.27;19.98;;;;;;;1.60;100.00;100829.69;1776939;78;21082;-62
2021/01/22 07:40:21;;;;;;;26.33;18.25;;;;;;;1.64;100.00;100824.69;1778143;79;21631;-61
2021/01/22 07:42:50;;;;;;;29.20;18.95;;;;;;;1.70;100.00;100822.49;1779349;79;23089;-61
2021/01/22 07:45:19;;;;;;;26.75;18.40;;;;;;;1.77;100.00;100822.03;1782950;78;21207;-61
2021/01/22 07:47:48;;;;;;;31.00;19.57;;;;;;;1.82;100.00;100826.36;1778476;78;21171;-61
2021/01/22 07:50:21;;;;;;;33.50;21.90;;;;;;;1.88;100.00;100824.63;1786015;78;21128;-61
2021/01/22 07:52:50;;;;;;;31.52;20.92;;;;;;;1.92;100.00;100827.33;1781333;79;21089;-60
2021/01/22 07:55:20;;;;;;;30.85;21.00;;;;;;;1.97;100.00;100821.41;1782820;79;21198;-60
2021/01/22 07:58:03;;;;;;;34.48;22.75;;;;;;;1.97;100.00;100822.69;1777033;79;21538;-60
2021/01/22 08:00:39;;;;;;;30.48;20.45;;;;;;;1.96;100.00;100817.17;1774381;79;21223;-60
2021/01/22 08:03:09;;;;;;;32.88;19.95;;;;;;;1.94;100.00;100814.72;1780937;79;21124;-61
2021/01/22 08:05:38;;;;;;;30.55;19.77;;;;;;;1.89;100.00;100813.41;1773122;79;21144;-62
2021/01/22 08:08:21;;;;;;;32.90;21.23;;;;;;;1.86;100.00;100816.23;1769545;79;21372;-62
2021/01/22 08:10:49;;;;;;;30.85;19.82;;;;;;;1.84;100.00;100808.61;1770292;79;21132;-64
2021/01/22 08:13:17;;;;;;;30.10;19.37;;;;;;;1.85;100.00;100809.42;1774064;79;21115;-65
2021/01/22 08:15:45;;;;;;;29.20;17.70;;;;;;;1.86;100.00;100807.23;1770725;79;21266;-64
2021/01/22 08:18:13;;;;;;;32.17;18.75;;;;;;;1.88;100.00;100804.88;1772784;79;21100;-64
2021/01/22 08:20:50;;;;;;;26.68;18.05;;;;;;;1.90;100.00;100804.31;1772263;79;21604;-64
2021/01/22 08:23:19;;;;;;;30.30;20.05;;;;;;;1.95;100.00;100799.64;1768486;79;21176;-66
2021/01/22 08:25:49;;;;;;;29.92;19.37;;;;;;;2.01;100.00;100803.52;1770932;79;21166;-63
2021/01/22 08:28:18;;;;;;;46.30;23.50;;;;;;;2.06;100.00;100797.56;1771397;79;21659;-69
2021/01/22 08:30:48;;;;;;;30.57;19.90;;;;;;;2.13;100.00;100793.60;1724976;80;21014;-71
2021/01/22 08:33:16;;;;;;;32.23;19.73;;;;;;;2.21;100.00;100794.78;1771959;79;22332;-73
2021/01/22 08:35:46;;;;;;;72.47;31.50;;;;;;;2.30;100.00;100792.78;1768571;78;39502;-77
2021/01/22 08:38:15;;;;;;;69.12;31.23;;;;;;;2.39;100.00;100786.96;1769472;79;21212;-83
2021/01/22 08:40:45;;;;;;;56.50;25.68;;;;;;;2.62;100.00;100782.62;1772171;79;21097;-83
2021/01/22 08:43:14;;;;;;;32.20;19.48;;;;;;;3.17;100.00;100776.98;1770810;79;21157;-77
2021/01/22 08:45:44;;;;;;;28.83;18.85;;;;;;;3.98;100.00;100771.67;1770106;79;21275;-74
2021/01/22 08:48:13;;;;;;;26.50;16.62;;;;;;;4.87;100.00;100766.68;1774150;79;21277;-72
2021/01/22 08:50:41;;;;;;;26.90;16.35;;;;;;;5.75;100.00;100750.67;1773673;79;21152;-72
2021/01/22 08:53:11;;;;;;;23.98;15.80;;;;;;;6.45;100.00;100753.27;1772712;79;21045;-72
2021/01/22 08:55:40;;;;;;;20.67;15.17;;;;;;;7.12;100.00;100747.79;1773259;79;21575;-71
2021/01/22 08:58:10;;;;;;;20.33;14.23;;;;;;;7.69;100.00;100733.52;1771106;79;22600;-70
2021/01/22 09:00:39;;;;;;;17.77;12.40;;;;;;;7.97;100.00;100745.83;1716553;81;21492;-70
2021/01/22 09:03:23;;;;;;;15.83;11.67;;;;;;;8.14;100.00;100740.72;1768237;79;21461;-71
2021/01/22 09:05:53;;;;;;;15.97;11.20;;;;;;;8.32;100.00;100743.23;1772527;79;21459;-69
2021/01/22 09:08:23;;;;;;;14.80;11.30;;;;;;;8.38;100.00;100744.77;1736746;81;21520;-69
2021/01/22 09:10:51;;;;;;;14.80;10.10;;;;;;;8.30;100.00;100733.02;1736447;80;21538;-72
2021/01/22 09:13:21;;;;;;;17.87;11.33;;;;;;;8.30;100.00;100733.02;1739910;80;22176;-70
2021/01/22 09:16:03;;;;;;;16.30;10.90;;;;;;;8.21;100.00;100739.13;1743331;80;21826;-68
2021/01/22 09:18:32;;;;;;;15.07;10.40;;;;;;;8.20;100.00;100741.41;1734247;80;21643;-75
2021/01/22 09:21:05;;;;;;;12.97;9.37;;;;;;;8.42;100.00;100743.97;1741367;80;22349;-67
2021/01/22 09:23:33;;;;;;;17.07;10.40;;;;;;;8.19;100.00;100748.87;1771749;79;21644;-69
2021/01/22 09:26:02;;;;;;;21.40;13.10;;;;;;;7.71;100.00;100741.94;1752341;80;21917;-73
2021/01/22 09:28:30;;;;;;;35.80;18.27;;;;;;;7.71;100.00;100741.94;1739391;80;22030;-73
2021/01/22 09:30:58;;;;;;;19.93;13.03;;;;;;;7.29;100.00;100738.72;1739288;80;21426;-72
2021/01/22 09:33:28;;;;;;;13.93;10.00;;;;;;;6.87;100.00;100744.98;1742046;80;21426;-70
2021/01/22 09:35:58;;;;;;;14.13;9.68;;;;;;;6.64;100.00;100745.06;1721264;81;21271;-73
2021/01/22 09:38:27;;;;;;;17.33;11.50;;;;;;;6.57;100.00;100748.22;1738070;80;21204;-77
2021/01/22 09:40:55;;;;;;;15.50;10.57;;;;;;;6.62;100.00;100749.08;1740596;81;21387;-73
2021/01/22 09:43:24;;;;;;;14.97;9.77;;;;;;;6.48;100.00;100741.33;1723263;82;21385;-72
2021/01/22 09:45:56;;;;;;;29.53;15.13;;;;;;;6.26;100.00;100739.93;1780286;79;21296;-71
2021/01/22 09:48:25;;;;;;;25.80;13.73;;;;;;;5.99;100.00;100740.72;1744000;80;21452;-72
2021/01/22 09:50:55;;;;;;;24.10;11.63;;;;;;;5.80;100.00;100744.63;1745082;80;21425;-71
2021/01/22 09:53:24;;;;;;;20.67;12.47;;;;;;;5.63;100.00;100742.26;1744960;80;21374;-70
2021/01/22 09:55:55;;;;;;;22.57;12.60;;;;;;;5.57;100.00;100738.47;1739077;81;21291;-70
2021/01/22 09:58:23;;;;;;;17.85;11.68;;;;;;;5.74;100.00;100735.64;1742842;81;21713;-70
2021/01/22 10:00:54;;;;;;;16.83;11.17;;;;;;;6.14;100.00;100729.43;1701666;80;21288;-71
2021/01/22 10:03:22;;;;;;;13.50;8.67;;;;;;;6.44;100.00;100724.91;1745423;81;21826;-71
2021/01/22 10:05:51;;;;;;;14.40;9.30;;;;;;;6.58;100.00;100727.83;1710852;82;21389;-70
2021/01/22 10:08:20;;;;;;;12.27;8.17;;;;;;;6.64;100.00;100723.05;1766500;79;21867;-70
2021/01/22 10:10:52;;;;;;;13.47;8.73;;;;;;;6.65;100.00;100719.48;1750452;80;22817;-68
2021/01/22 10:13:20;;;;;;;14.53;10.23;;;;;;;6.65;100.00;100718.19;1773851;79;21388;-67
2021/01/22 10:15:49;;;;;;;12.27;8.77;;;;;;;6.60;100.00;100719.12;1773015;79;21433;-68
2021/01/22 10:18:18;;;;;;;11.37;8.03;;;;;;;6.65;100.00;100716.41;1777011;79;21450;-68
2021/01/22 10:20:52;;;;;;;14.80;8.20;;;;;;;6.69;100.00;100714.34;1760688;79;21396;-67
2021/01/22 10:23:21;;;;;;;12.57;8.33;;;;;;;6.72;100.00;100708.39;1753208;79;21848;-65
2021/01/22 10:25:50;;;;;;;13.13;9.00;;;;;;;6.77;100.00;100704.06;1721078;81;22658;-66
2021/01/22 10:28:19;;;;;;;18.00;9.50;;;;;;;6.81;100.00;100700.20;1753705;79;21854;-67
2021/01/22 10:30:49;;;;;;;11.00;7.30;;;;;;;6.93;100.00;100699.50;1716706;81;21285;-66
2021/01/22 10:33:18;;;;;;;12.40;8.80;;;;;;;7.09;100.00;100697.56;1758285;79;21324;-65
2021/01/22 10:35:47;;;;;;;13.40;8.23;;;;;;;7.26;100.00;100694.92;1777645;79;21875;-64
2021/01/22 10:38:16;;;;;;;14.57;9.53;;;;;;;7.46;100.00;100687.80;1779198;79;22673;-65
2021/01/22 10:40:46;;;;;;;13.83;8.70;;;;;;;7.63;100.00;100682.22;1745622;80;21322;-65
2021/01/22 10:43:16;;;;;;;11.50;7.67;;;;;;;7.76;100.00;100680.49;1745267;79;21426;-64
2021/01/22 10:45:46;;;;;;;12.23;8.18;;;;;;;7.78;100.00;100682.46;1744353;79;21275;-64
2021/01/22 10:48:14;;;;;;;13.70;8.80;;;;;;;7.78;100.00;100674.67;1748600;80;21156;-64
2021/01/22 10:50:43;;;;;;;15.30;9.50;;;;;;;7.72;100.00;100677.87;1748687;79;21398;-64
2021/01/22 10:53:13;;;;;;;12.67;8.03;;;;;;;7.53;100.00;100673.23;1746418;80;21425;-65
2021/01/22 10:55:42;;;;;;;12.77;8.53;;;;;;;7.40;100.00;100678.50;1745404;79;21436;-66
2021/01/22 10:58:10;;;;;;;11.40;8.27;;;;;;;7.29;100.00;100673.08;1747420;79;21492;-70
2021/01/22 11:00:38;;;;;;;11.13;7.73;;;;;;;7.27;100.00;100674.99;1715802;81;21401;-66
2021/01/22 11:03:06;;;;;;;11.87;7.67;;;;;;;7.28;100.00;100666.27;1752923;79;21217;-63
2021/01/22 11:05:36;;;;;;;16.50;9.87;;;;;;;7.19;100.00;100671.86;1739814;79;21966;-66
2021/01/22 11:08:05;;;;;;;13.37;8.30;;;;;;;6.91;100.00;100662.57;1735750;80;21457;-64
2021/01/22 11:10:35;;;;;;;16.77;9.63;;;;;;;6.56;100.00;100658.53;1734747;80;21327;-64
2021/01/22 11:13:06;;;;;;;26.27;15.77;;;;;;;6.25;100.00;100657.22;1733409;80;21140;-63
2021/01/22 11:15:35;;;;;;;48.37;21.30;;;;;;;6.07;100.00;100651.53;1730913;80;22181;-68
2021/01/22 11:18:03;;;;;;;19.50;10.98;;;;;;;5.94;100.00;100652.33;1734651;80;21360;-65
2021/01/22 11:20:31;;;;;;;16.20;10.10;;;;;;;5.79;100.00;100645.48;1731157;80;21484;-68
2021/01/22 11:23:00;;;;;;;17.00;9.50;;;;;;;5.68;100.00;100648.73;1732317;80;21736;-63
2021/01/22 11:25:30;;;;;;;19.55;11.63;;;;;;;5.69;100.00;100643.91;1731796;80;21871;-64
2021/01/22 11:27:59;;;;;;;23.22;12.05;;;;;;;5.76;100.00;100644.98;1731118;80;21700;-65
2021/01/22 11:30:27;;;;;;;18.32;9.58;;;;;;;5.82;100.00;100641.80;1728194;80;21051;-63
2021/01/22 11:32:56;;;;;;;20.57;13.38;;;;;;;5.84;100.00;100639.42;1728192;80;21176;-62
2021/01/22 11:35:25;;;;;;;24.37;14.28;;;;;;;5.85;100.00;100639.75;1727134;80;21014;-64
2021/01/22 11:37:54;;;;;;;22.95;15.30;;;;;;;5.95;100.00;100639.75;1733178;80;21188;-65
2021/01/22 11:40:22;;;;;;;22.58;13.88;;;;;;;5.98;100.00;100632.97;1730164;80;21376;-65
2021/01/22 11:42:50;;;;;;;22.48;14.13;;;;;;;5.97;100.00;100630.53;1728716;80;21472;-65
2021/01/22 11:45:18;;;;;;;49.65;27.95;;;;;;;5.97;100.00;100630.53;1736077;80;21229;-63
2021/01/22 11:47:46;;;;;;;37.85;25.23;;;;;;;5.95;100.00;100634.58;1739325;80;21100;-64
2021/01/22 11:50:15;;;;;;;33.30;21.10;;;;;;;5.98;100.00;100632.16;1738099;80;21080;-63
2021/01/22 11:52:45;;;;;;;33.88;24.47;;;;;;;5.99;100.00;100629.93;1736426;80;21368;-69
2021/01/22 11:55:14;;;;;;;42.88;35.73;;;;;;;5.95;100.00;100626.00;1738549;80;21108;-64
2021/01/22 11:57:43;;;;;;;20.40;15.48;;;;;;;5.84;100.00;100628.27;1734474;80;21161;-64
2021/01/22 12:00:13;;;;;;;32.58;28.42;;;;;;;5.67;100.00;100623.34;1737881;80;21232;-65
2021/01/22 12:02:41;;;;;;;27.80;22.52;;;;;;;5.47;100.00;100625.19;1737463;80;21168;-70
2021/01/22 12:05:11;;;;;;;21.12;13.98;;;;;;;5.35;100.00;100628.42;1736902;80;21176;-65
2021/01/22 12:07:40;;;;;;;17.92;11.88;;;;;;;5.25;100.00;100621.64;1736036;80;21053;-64
2021/01/22 12:10:11;;;;;;;16.48;10.90;;;;;;;5.10;100.00;100620.77;1741871;79;21185;-66
2021/01/22 12:12:39;;;;;;;16.05;9.85;;;;;;;4.99;100.00;100620.92;1738383;82;21117;-70
2021/01/22 12:15:30;;;;;;;11.90;8.70;;;;;;;4.91;100.00;100613.53;1735466;81;21137;-64
2021/01/22 12:17:58;;;;;;;14.73;9.35;;;;;;;4.83;100.00;100616.80;1695570;83;21206;-66
2021/01/22 12:20:26;;;;;;;22.30;13.05;;;;;;;4.77;100.00;100612.17;1687226;83;21255;-68
2021/01/22 12:22:55;;;;;;;18.92;11.45;;;;;;;4.70;100.00;100614.50;1697247;83;21141;-65
2021/01/22 12:25:26;;;;;;;15.60;10.13;;;;;;;4.66;100.00;100614.89;1683013;84;21243;-65
2021/01/22 12:27:56;;;;;;;18.07;9.25;;;;;;;4.61;100.00;100607.55;1708702;83;21124;-64
2021/01/22 12:30:26;;;;;;;15.63;9.10;;;;;;;4.58;100.00;100615.12;1679397;83;22274;-64
2021/01/22 12:32:56;;;;;;;12.70;8.70;;;;;;;4.55;100.00;100614.09;1683881;84;21035;-65
2021/01/22 12:35:25;;;;;;;16.10;9.75;;;;;;;4.51;100.00;100622.22;1683728;84;21109;-67
2021/01/22 12:37:53;;;;;;;14.15;9.13;;;;;;;4.48;100.00;100622.03;1681956;84;21181;-63
2021/01/22 12:40:23;;;;;;;15.25;9.60;;;;;;;4.46;100.00;100620.05;1727701;80;21177;-63
2021/01/22 12:42:52;;;;;;;16.57;9.90;;;;;;;4.41;100.00;100620.93;1750703;80;21202;-63
2021/01/22 12:45:24;;;;;;;14.60;8.73;;;;;;;4.37;100.00;100623.44;1748060;80;21232;-63
2021/01/22 12:47:53;;;;;;;17.17;8.85;;;;;;;4.31;100.00;100617.52;1751479;81;21168;-64
2021/01/22 12:50:22;;;;;;;14.58;8.65;;;;;;;4.25;100.00;100613.71;1751640;81;21174;-67
2021/01/22 12:52:52;;;;;;;18.60;9.08;;;;;;;4.20;100.00;100617.63;1758028;81;21183;-63
2021/01/22 12:55:21;;;;;;;15.60;10.15;;;;;;;4.12;100.00;100607.48;1755277;81;21204;-64
2021/01/22 12:57:50;;;;;;;14.47;8.55;;;;;;;4.07;100.00;100616.11;1749444;81;20979;-64
2021/01/22 13:00:19;;;;;;;13.43;8.38;;;;;;;4.03;100.00;100616.52;1749990;81;21511;-67
2021/01/22 13:02:48;;;;;;;14.73;8.78;;;;;;;3.98;100.00;100619.94;1751437;81;21586;-63
2021/01/22 13:05:17;;;;;;;14.58;9.00;;;;;;;3.94;100.00;100621.99;1752589;81;21148;-62
2021/01/22 13:07:46;;;;;;;14.43;9.03;;;;;;;3.90;100.00;100622.73;1755361;81;21642;-62
2021/01/22 13:10:15;;;;;;;17.98;11.12;;;;;;;3.88;100.00;100623.80;1755497;81;21192;-66
2021/01/22 13:12:43;;;;;;;14.47;9.48;;;;;;;3.84;100.00;100623.71;1756353;81;21073;-62
2021/01/22 13:15:14;;;;;;;13.78;9.50;;;;;;;3.81;100.00;100623.97;1755408;80;21200;-61
2021/01/22 13:17:43;;;;;;;13.22;9.90;;;;;;;3.78;100.00;100621.64;1749772;81;21204;-63
2021/01/22 13:20:13;;;;;;;15.68;9.45;;;;;;;3.75;100.00;100618.03;1756083;81;21185;-61
2021/01/22 13:22:42;;;;;;;14.95;9.15;;;;;;;3.72;100.00;100609.29;1746623;81;21595;-61
2021/01/22 13:25:12;;;;;;;18.87;11.78;;;;;;;3.69;100.00;100614.22;1749689;81;21195;-62
2021/01/22 13:27:42;;;;;;;14.25;7.78;;;;;;;3.66;100.00;100611.42;1754562;81;21808;-61
2021/01/22 13:30:11;;;;;;;14.73;8.68;;;;;;;3.63;100.00;100608.28;1755105;81;21650;-62
2021/01/22 13:32:39;;;;;;;12.82;8.75;;;;;;;3.61;100.00;100598.11;1703874;83;22167;-62
2021/01/22 13:35:09;;;;;;;13.80;8.15;;;;;;;3.57;100.00;100594.64;1748099;81;21231;-61
2021/01/22 13:37:38;;;;;;;14.80;9.05;;;;;;;3.54;100.00;100603.91;1740530;81;21569;-61
2021/01/22 13:40:15;;;;;;;14.55;9.25;;;;;;;3.51;100.00;100599.83;1752123;81;21205;-67
2021/01/22 13:42:38;;;;;;;13.90;9.05;;;;;;;3.48;100.00;100609.57;1746890;81;21120;-61
2021/01/22 13:45:08;;;;;;;16.48;9.95;;;;;;;3.43;100.00;100594.98;1740233;81;21378;-62
2021/01/22 13:47:38;;;;;;;15.35;9.98;;;;;;;3.41;100.00;100598.98;1696207;83;21212;-62
2021/01/22 13:50:08;;;;;;;14.40;9.18;;;;;;;3.40;100.00;100602.48;1748370;81;21184;-62
2021/01/22 13:52:38;;;;;;;17.48;9.70;;;;;;;3.37;100.00;100605.31;1747877;81;21184;-62
2021/01/22 13:55:08;;;;;;;13.78;9.13;;;;;;;3.34;100.00;100597.86;1719383;81;21190;-61
2021/01/22 13:57:39;;;;;;;17.62;10.80;;;;;;;3.32;100.00;100606.17;1734304;81;21145;-61
2021/01/22 14:00:08;;;;;;;21.42;12.82;;;;;;;3.31;100.00;100599.39;1720933;81;21242;-61
2021/01/22 14:02:38;;;;;;;20.82;11.30;;;;;;;3.26;100.00;100599.78;1701671;83;21528;-61
2021/01/22 14:05:08;;;;;;;17.75;10.98;;;;;;;3.24;100.00;100604.70;1743779;81;21190;-61
2021/01/22 14:07:36;;;;;;;25.05;14.47;;;;;;;3.22;100.00;100613.02;1741752;81;21117;-61
2021/01/22 14:10:06;;;;;;;18.32;12.93;;;;;;;3.19;100.00;100607.67;1737252;81;22615;-66
2021/01/22 14:12:35;;;;;;;41.48;30.37;;;;;;;3.16;100.00;100608.73;1751833;81;21092;-60
2021/01/22 14:15:05;;;;;;;21.82;14.45;;;;;;;3.15;100.00;100616.13;1746451;81;21578;-60
2021/01/22 14:17:33;;;;;;;21.45;13.78;;;;;;;3.13;100.00;100614.13;1720211;81;21509;-61
2021/01/22 14:20:02;;;;;;;31.25;21.10;;;;;;;3.12;100.00;100618.12;1743966;81;22002;-68
2021/01/22 14:22:32;;;;;;;19.40;13.45;;;;;;;3.10;100.00;100617.42;1745431;81;22686;-62
2021/01/22 14:25:02;;;;;;;24.85;13.20;;;;;;;3.11;100.00;100608.78;1743211;81;21012;-62
2021/01/22 14:27:31;;;;;;;33.35;18.85;;;;;;;3.09;100.00;100609.36;1746771;81;21040;-61
2021/01/22 14:30:01;;;;;;;20.60;11.80;;;;;;;3.07;100.00;100602.22;1729178;81;21210;-65
2021/01/22 14:32:31;;;;;;;26.17;13.83;;;;;;;3.06;100.00;100624.58;1723155;82;21238;-62
2021/01/22 14:35:02;;;;;;;39.60;20.37;;;;;;;3.05;100.00;100621.67;1736824;81;21285;-63
2021/01/22 14:37:30;;;;;;;21.75;12.50;;;;;;;3.03;100.00;100617.13;1726581;81;21611;-62
2021/01/22 14:39:59;;;;;;;19.73;12.03;;;;;;;3.02;100.00;100615.48;1721918;81;21095;-64
2021/01/22 14:42:29;;;;;;;19.90;11.93;;;;;;;3.01;100.00;100615.62;1715197;81;21188;-65
2021/01/22 14:44:59;;;;;;;46.30;27.50;;;;;;;2.98;100.00;100615.38;1675199;83;21203;-64
2021/01/22 14:47:28;;;;;;;30.02;15.68;;;;;;;2.95;100.00;100607.91;1712106;82;21222;-62
2021/01/22 14:50:02;;;;;;;27.42;16.60;;;;;;;2.92;100.00;100609.47;1730908;81;21203;-62
2021/01/22 14:52:31;;;;;;;22.82;13.90;;;;;;;2.92;100.00;100606.41;1736585;81;21110;-62
2021/01/22 14:55:02;;;;;;;26.57;14.25;;;;;;;2.90;100.00;100608.76;1700734;83;21569;-62
2021/01/22 14:57:31;;;;;;;22.27;13.40;;;;;;;2.88;100.00;100614.05;1702270;83;21187;-62
2021/01/22 15:00:03;;;;;;;21.15;10.90;;;;;;;2.88;100.00;100606.80;1728655;81;21070;-67
2021/01/22 15:02:34;;;;;;;21.00;12.73;;;;;;;2.87;100.00;100616.72;1739827;81;21500;-64
2021/01/22 15:05:05;;;;;;;19.15;12.15;;;;;;;2.87;100.00;100615.44;1730200;81;22613;-66
2021/01/22 15:07:35;;;;;;;20.77;12.43;;;;;;;2.87;100.00;100612.86;1732881;81;21219;-64
2021/01/22 15:10:06;;;;;;;19.25;12.28;;;;;;;2.86;100.00;100611.23;1714130;81;21093;-64
2021/01/22 15:12:37;;;;;;;21.90;12.78;;;;;;;2.85;100.00;100615.58;1716390;81;21277;-65
2021/01/22 15:15:07;;;;;;;18.98;11.75;;;;;;;2.85;100.00;100611.72;1717960;81;21118;-66
2021/01/22 15:17:36;;;;;;;17.37;10.90;;;;;;;2.84;100.00;100612.66;1722886;81;21100;-65
2021/01/22 15:20:07;;;;;;;15.15;10.15;;;;;;;2.84;100.00;100612.66;1726097;81;21563;-65
2021/01/22 15:22:36;;;;;;;19.42;10.55;;;;;;;2.85;100.00;100623.77;1697048;83;21124;-65
2021/01/22 15:25:07;;;;;;;16.82;10.20;;;;;;;2.86;100.00;100622.83;1715064;81;21506;-66
2021/01/22 15:27:36;;;;;;;18.52;12.33;;;;;;;2.86;100.00;100630.08;1702325;82;21141;-66